Time;durP1;ratioP1;P1;durP2;ratioP2;P2;SDS_P1;SDS_P2;PMS_P1;PMS_P2;Temp;Humidity;BMP_temperature;BMP_pressure;BME280_temperature;BME280_humidity;BME280_pressure;Samples;Min_cycle;Max_cycle;Signal;HPM_P1;HPM_P2
2023/01/14 00:01:04;;;;;;;17.40;4.22;;;7.90;99.90;;;;;;7364099;19;20532;-69
2023/01/14 00:03:32;;;;;;;15.43;2.73;;;7.80;99.90;;;;;;7361984;19;20018;-69
2023/01/14 00:06:03;;;;;;;15.73;3.83;;;7.80;99.90;;;;;;7360233;19;20858;-69
2023/01/14 00:08:30;;;;;;;15.95;3.78;;;7.70;99.90;;;;;;7361455;19;20021;-69
2023/01/14 00:11:09;;;;;;;20.15;3.95;;;7.60;99.90;;;;;;7360705;19;20033;-69
2023/01/14 00:13:39;;;;;;;16.25;4.18;;;7.60;99.90;;;;;;7361102;19;20047;-69
2023/01/14 00:16:07;;;;;;;18.95;3.88;;;7.60;99.90;;;;;;7357672;19;20022;-62
2023/01/14 00:18:35;;;;;;;21.02;4.70;;;7.60;99.90;;;;;;7357466;19;20106;-69
2023/01/14 00:21:11;;;;;;;19.98;4.63;;;7.60;99.90;;;;;;7359691;19;20604;-69
2023/01/14 00:23:38;;;;;;;17.80;3.63;;;7.60;99.90;;;;;;7354937;19;20031;-69
2023/01/14 00:26:07;;;;;;;14.25;3.08;;;7.60;99.90;;;;;;7356630;19;20524;-69
2023/01/14 00:28:34;;;;;;;12.90;3.42;;;7.60;99.90;;;;;;7359035;19;20022;-69
2023/01/14 00:31:03;;;;;;;14.88;3.78;;;7.60;99.90;;;;;;7359903;19;20509;-70
2023/01/14 00:33:29;;;;;;;17.83;3.80;;;7.60;99.90;;;;;;7358527;19;20515;-62
2023/01/14 00:35:55;;;;;;;17.17;3.58;;;7.60;99.90;;;;;;7360842;19;20098;-61
2023/01/14 00:38:21;;;;;;;19.52;4.15;;;7.60;99.90;;;;;;7357965;19;20011;-62
2023/01/14 00:40:48;;;;;;;20.27;3.55;;;7.60;99.90;;;;;;7356885;19;20419;-62
2023/01/14 00:43:14;;;;;;;18.13;4.38;;;7.60;99.90;;;;;;7356123;19;20459;-62
2023/01/14 00:45:40;;;;;;;18.48;3.67;;;7.60;99.90;;;;;;7358058;19;20521;-69
2023/01/14 00:48:07;;;;;;;18.48;3.63;;;7.60;99.90;;;;;;7353727;19;20524;-62
2023/01/14 00:50:33;;;;;;;17.83;3.20;;;7.60;99.90;;;;;;7355555;19;20014;-62
2023/01/14 00:53:01;;;;;;;15.95;3.88;;;7.70;99.90;;;;;;7357317;19;20144;-61
2023/01/14 00:55:27;;;;;;;16.52;4.22;;;7.70;99.90;;;;;;7356156;19;20082;-62
2023/01/14 00:57:55;;;;;;;17.65;3.15;;;7.70;99.90;;;;;;7359182;19;20025;-62
2023/01/14 01:00:21;;;;;;;19.52;3.97;;;7.80;99.90;;;;;;7355954;19;20463;-62
2023/01/14 01:02:48;;;;;;;19.02;3.97;;;7.70;99.90;;;;;;7360208;19;20019;-69
2023/01/14 01:05:16;;;;;;;17.90;3.35;;;7.70;99.90;;;;;;7359045;19;20025;-69
2023/01/14 01:07:43;;;;;;;11.80;3.42;;;7.80;99.90;;;;;;7350390;19;20039;-68
2023/01/14 01:10:10;;;;;;;20.92;3.55;;;7.80;99.90;;;;;;7356004;19;20584;-68
2023/01/14 01:12:37;;;;;;;14.98;3.00;;;7.80;99.90;;;;;;7353502;19;20022;-69
2023/01/14 01:15:06;;;;;;;12.90;2.97;;;7.80;99.90;;;;;;7362835;19;20025;-69
2023/01/14 01:17:33;;;;;;;18.50;3.25;;;7.70;99.90;;;;;;7366146;19;20383;-68
2023/01/14 01:19:59;;;;;;;14.23;3.05;;;7.70;99.90;;;;;;7362969;19;20035;-68
2023/01/14 01:22:31;;;;;;;14.65;3.38;;;7.70;99.90;;;;;;7365637;19;20011;-68
2023/01/14 01:24:59;;;;;;;16.80;3.00;;;7.70;99.90;;;;;;7360579;19;20042;-61
2023/01/14 01:27:26;;;;;;;17.73;3.75;;;7.60;99.90;;;;;;7364363;19;20464;-61
2023/01/14 01:29:53;;;;;;;12.43;3.03;;;7.60;99.90;;;;;;7364411;19;20022;-68
2023/01/14 01:32:21;;;;;;;16.45;3.50;;;7.60;99.90;;;;;;7367599;19;20033;-69
2023/01/14 01:34:47;;;;;;;11.57;3.83;;;7.60;99.90;;;;;;7361055;19;20500;-69
2023/01/14 01:37:14;;;;;;;19.17;3.45;;;7.60;99.90;;;;;;7365804;19;20014;-61
2023/01/14 01:39:40;;;;;;;13.45;3.47;;;7.60;99.90;;;;;;7361483;19;20468;-63
2023/01/14 01:42:13;;;;;;;21.60;3.88;;;7.60;99.90;;;;;;7367453;19;20055;-62
2023/01/14 01:44:42;;;;;;;19.45;5.13;;;7.60;99.90;;;;;;7362512;19;20026;-61
2023/01/14 01:47:08;;;;;;;15.45;3.58;;;7.60;99.90;;;;;;7365562;19;20018;-62
2023/01/14 01:49:37;;;;;;;17.70;4.28;;;7.60;99.90;;;;;;7362317;19;20010;-61
2023/01/14 01:52:17;;;;;;;17.05;3.47;;;7.70;99.90;;;;;;7367184;19;20097;-61
2023/01/14 01:55:01;;;;;;;21.73;4.25;;;7.60;99.90;;;;;;7359386;19;20018;-69
2023/01/14 01:57:28;;;;;;;18.80;3.50;;;7.70;99.90;;;;;;7363844;19;20400;-61
2023/01/14 02:00:00;;;;;;;19.02;4.03;;;7.70;99.90;;;;;;7362928;19;20025;-62
2023/01/14 02:02:28;;;;;;;18.95;4.05;;;7.70;99.90;;;;;;7367081;19;20033;-68
2023/01/14 02:04:54;;;;;;;18.25;3.75;;;7.70;99.90;;;;;;7362685;19;20607;-68
2023/01/14 02:07:23;;;;;;;14.25;3.67;;;7.70;99.90;;;;;;7362636;19;20628;-69
2023/01/14 02:09:58;;;;;;;21.30;4.28;;;7.70;99.90;;;;;;7363051;19;20014;-68
2023/01/14 02:13:11;;;;;;;21.67;3.72;;;7.80;99.90;;;;;;7362098;19;20019;-62
2023/01/14 02:16:08;;;;;;;15.05;3.92;;;7.80;99.90;;;;;;7361239;19;20442;-61
2023/01/14 02:18:55;;;;;;;16.10;3.42;;;7.70;99.90;;;;;;7363820;19;20464;-61
2023/01/14 02:21:35;;;;;;;23.50;4.28;;;7.80;99.90;;;;;;7363423;19;20030;-62
2023/01/14 02:24:24;;;;;;;23.92;5.25;;;7.70;99.90;;;;;;7361110;19;20707;-62
2023/01/14 02:27:01;;;;;;;20.35;3.50;;;7.70;99.90;;;;;;7358448;19;20029;-69
2023/01/14 02:30:11;;;;;;;18.85;3.65;;;7.80;99.90;;;;;;7359348;19;20813;-69
2023/01/14 02:32:51;;;;;;;16.83;3.38;;;7.90;99.90;;;;;;7361525;19;20699;-68
2023/01/14 02:35:21;;;;;;;15.25;3.72;;;7.80;99.90;;;;;;7360799;19;20370;-69
2023/01/14 02:38:07;;;;;;;17.60;3.88;;;7.90;99.90;;;;;;7364519;19;20622;-69
2023/01/14 02:40:46;;;;;;;20.98;3.58;;;7.90;99.90;;;;;;7361720;19;20485;-61
2023/01/14 02:46:32;;;;;;;21.95;4.07;;;7.80;99.90;;;;;;7362838;19;20036;-69
2023/01/14 02:49:06;;;;;;;19.17;4.05;;;7.80;99.90;;;;;;7364298;19;20022;-68
2023/01/14 02:51:33;;;;;;;18.25;3.88;;;7.90;99.90;;;;;;7362447;19;20029;-69
2023/01/14 02:53:59;;;;;;;14.52;3.17;;;7.80;99.90;;;;;;7360182;19;20392;-69
2023/01/14 02:56:27;;;;;;;17.13;3.92;;;7.90;99.90;;;;;;7361158;19;20018;-61
2023/01/14 02:59:29;;;;;;;18.80;3.72;;;7.90;99.90;;;;;;7359385;19;20015;-62
2023/01/14 03:02:15;;;;;;;17.50;3.53;;;7.80;99.90;;;;;;7361666;19;20054;-62
2023/01/14 03:05:03;;;;;;;17.98;4.10;;;7.80;99.90;;;;;;7356449;19;20042;-68
2023/01/14 03:07:45;;;;;;;15.18;3.33;;;7.70;99.90;;;;;;7362259;19;20027;-62
2023/01/14 03:10:27;;;;;;;18.90;3.05;;;7.60;99.90;;;;;;7362034;19;20027;-62
2023/01/14 03:13:29;;;;;;;16.77;3.35;;;7.60;99.90;;;;;;7359080;19;20639;-62
2023/01/14 03:16:22;;;;;;;17.40;3.85;;;7.50;99.90;;;;;;7359551;19;20022;-62
2023/01/14 03:18:59;;;;;;;22.25;4.07;;;7.30;99.90;;;;;;7361729;19;20437;-62
2023/01/14 03:21:30;;;;;;;19.52;4.22;;;7.20;99.90;;;;;;7360840;19;20014;-61
2023/01/14 03:24:03;;;;;;;17.88;3.63;;;7.20;99.90;;;;;;7362331;19;20410;-63
2023/01/14 03:26:35;;;;;;;18.25;3.55;;;7.10;99.90;;;;;;7359061;19;20018;-68
2023/01/14 03:29:08;;;;;;;21.17;4.32;;;7.00;99.90;;;;;;7359591;19;20026;-68
2023/01/14 03:31:41;;;;;;;17.02;3.60;;;6.90;99.90;;;;;;7359459;19;20022;-69
2023/01/14 03:34:18;;;;;;;26.10;3.90;;;6.80;99.90;;;;;;7363631;19;20480;-68
2023/01/14 03:36:49;;;;;;;20.23;3.55;;;6.80;99.90;;;;;;7362323;19;20598;-62
2023/01/14 03:39:23;;;;;;;19.02;4.00;;;6.80;99.90;;;;;;7363050;19;20837;-62
2023/01/14 03:45:02;;;;;;;14.65;3.50;;;6.70;99.90;;;;;;7358956;19;20615;-69
2023/01/14 03:47:33;;;;;;;18.08;4.15;;;6.60;99.90;;;;;;7359036;19;20025;-68
2023/01/14 03:50:13;;;;;;;18.42;3.70;;;6.60;99.90;;;;;;7361586;19;20382;-69
2023/01/14 03:52:56;;;;;;;22.60;3.95;;;6.50;99.90;;;;;;7362646;19;20018;-62
2023/01/14 03:55:33;;;;;;;20.48;4.35;;;6.50;99.90;;;;;;7359438;19;20022;-62
2023/01/14 03:58:08;;;;;;;17.55;3.92;;;6.50;99.90;;;;;;7361414;19;20019;-62
2023/01/14 04:00:47;;;;;;;16.30;3.28;;;6.50;99.90;;;;;;7361680;19;20018;-62
2023/01/14 04:03:14;;;;;;;21.00;4.88;;;6.50;99.90;;;;;;7361390;19;20014;-62
2023/01/14 04:05:41;;;;;;;14.60;3.35;;;6.50;99.90;;;;;;7357050;19;20489;-62
2023/01/14 04:08:08;;;;;;;15.38;3.35;;;6.50;99.90;;;;;;7362693;19;20493;-68
2023/01/14 04:10:35;;;;;;;16.75;3.58;;;6.50;99.90;;;;;;7357994;19;20030;-62
2023/01/14 04:15:48;;;;;;;16.90;3.33;;;6.40;99.90;;;;;;7355901;19;20082;-61
2023/01/14 04:18:15;;;;;;;14.68;2.95;;;6.40;99.90;;;;;;7360583;19;20011;-61
2023/01/14 04:20:41;;;;;;;15.77;3.33;;;6.40;99.90;;;;;;7363203;19;20011;-62
2023/01/14 04:23:08;;;;;;;18.98;3.92;;;6.40;99.90;;;;;;7361577;19;21052;-62
2023/01/14 04:25:34;;;;;;;14.35;3.08;;;6.30;99.90;;;;;;7361200;19;20018;-62
2023/01/14 04:28:01;;;;;;;22.85;3.72;;;6.30;99.90;;;;;;7359201;19;20050;-68
2023/01/14 04:30:27;;;;;;;22.80;4.13;;;6.30;99.90;;;;;;7358638;19;20030;-68
2023/01/14 04:32:53;;;;;;;25.38;3.88;;;6.20;99.90;;;;;;7359595;19;20358;-69
2023/01/14 04:35:19;;;;;;;24.90;4.25;;;6.20;99.90;;;;;;7359414;19;20389;-62
2023/01/14 04:37:46;;;;;;;16.58;3.72;;;6.20;99.90;;;;;;7359398;19;20015;-62
2023/01/14 04:40:12;;;;;;;19.67;3.53;;;6.10;99.90;;;;;;7361731;19;20111;-61
2023/01/14 04:42:39;;;;;;;18.38;3.90;;;6.20;99.90;;;;;;7353646;19;20668;-68
2023/01/14 04:45:06;;;;;;;16.50;4.28;;;6.10;99.90;;;;;;7362381;19;20349;-68
2023/01/14 04:47:32;;;;;;;17.63;3.97;;;6.10;99.90;;;;;;7358982;19;20850;-69
2023/01/14 04:50:30;;;;;;;24.45;4.63;;;6.10;99.90;;;;;;7372699;19;20611;-69
2023/01/14 04:52:45;;;;;;;19.90;3.95;;;6.10;99.90;;;;;;7366780;19;20460;-68
2023/01/14 04:55:12;;;;;;;21.73;4.25;;;6.00;99.90;;;;;;7367735;19;20853;-69
2023/01/14 04:57:38;;;;;;;17.33;3.97;;;6.10;99.90;;;;;;7367212;19;20018;-69
2023/01/14 05:00:05;;;;;;;23.55;4.55;;;6.10;99.90;;;;;;7365215;19;20048;-68
2023/01/14 05:02:31;;;;;;;23.90;4.95;;;6.00;99.90;;;;;;7363795;19;20022;-68
2023/01/14 05:04:58;;;;;;;20.75;4.53;;;6.00;99.90;;;;;;7367145;19;20433;-68
2023/01/14 05:07:24;;;;;;;18.70;5.13;;;6.00;99.90;;;;;;7363479;19;20882;-68
2023/01/14 05:09:50;;;;;;;28.65;5.13;;;6.00;99.90;;;;;;7365068;19;20494;-68
2023/01/14 05:12:17;;;;;;;19.90;4.57;;;6.00;99.90;;;;;;7366360;19;20366;-69
2023/01/14 05:14:43;;;;;;;24.13;5.00;;;6.10;99.90;;;;;;7367827;19;20129;-69
2023/01/14 05:17:09;;;;;;;23.65;4.45;;;6.10;99.90;;;;;;7368035;19;20022;-69
2023/01/14 05:19:36;;;;;;;20.42;4.72;;;6.00;99.90;;;;;;7364613;19;20060;-68
2023/01/14 05:22:03;;;;;;;19.48;4.35;;;6.00;99.90;;;;;;7370337;19;20540;-69
2023/01/14 05:24:29;;;;;;;24.15;4.82;;;6.00;99.90;;;;;;7366714;19;20271;-68
2023/01/14 05:26:56;;;;;;;18.50;4.45;;;6.00;99.90;;;;;;7363609;19;20473;-68
2023/01/14 05:29:22;;;;;;;20.17;5.15;;;6.00;99.90;;;;;;7364007;19;20014;-68
2023/01/14 05:32:12;;;;;;;22.70;5.20;;;6.00;99.90;;;;;;7370189;19;20035;-69
2023/01/14 05:34:58;;;;;;;19.00;4.53;;;6.00;99.90;;;;;;7366212;19;20356;-69
2023/01/14 05:37:47;;;;;;;25.00;4.60;;;6.00;99.90;;;;;;7370665;19;20606;-69
2023/01/14 05:40:33;;;;;;;21.55;4.90;;;6.00;99.90;;;;;;7370655;19;20010;-69
2023/01/14 05:46:07;;;;;;;21.90;4.65;;;6.00;99.90;;;;;;7373631;19;20589;-68
2023/01/14 05:48:34;;;;;;;22.52;5.53;;;6.00;99.90;;;;;;7371382;19;20014;-62
2023/01/14 05:51:03;;;;;;;18.40;5.03;;;6.00;99.90;;;;;;7369306;19;20010;-62
2023/01/14 05:53:29;;;;;;;21.88;6.43;;;5.90;99.90;;;;;;7371045;19;20022;-62
2023/01/14 05:55:57;;;;;;;27.70;6.28;;;5.90;99.90;;;;;;7369940;19;20018;-62
2023/01/14 05:58:24;;;;;;;25.63;6.07;;;5.90;99.90;;;;;;7374368;19;20172;-61
2023/01/14 06:06:51;;;;;;;29.90;6.70;;;5.90;99.90;;;;;;7373632;19;20481;-61
2023/01/14 06:09:19;;;;;;;31.55;6.03;;;5.90;99.90;;;;;;7374321;19;20014;-61
2023/01/14 06:11:45;;;;;;;26.13;6.78;;;5.90;99.90;;;;;;7371479;19;20025;-62
2023/01/14 06:14:12;;;;;;;27.92;7.10;;;5.90;99.90;;;;;;7373618;19;20014;-61
2023/01/14 06:16:40;;;;;;;29.00;7.47;;;5.90;99.90;;;;;;7373252;19;20048;-62
2023/01/14 06:19:13;;;;;;;28.05;6.78;;;5.90;99.90;;;;;;7372572;19;20384;-62
2023/01/14 06:21:41;;;;;;;31.33;7.53;;;5.90;99.90;;;;;;7371070;19;20018;-62
2023/01/14 06:24:07;;;;;;;31.90;8.65;;;5.90;99.90;;;;;;7370667;19;20018;-62
2023/01/14 06:26:35;;;;;;;26.88;6.90;;;5.90;99.90;;;;;;7372483;19;20489;-61
2023/01/14 06:29:08;;;;;;;31.48;7.40;;;5.90;99.90;;;;;;7370843;19;20501;-61
2023/01/14 06:31:36;;;;;;;31.20;7.65;;;5.90;99.90;;;;;;7371387;19;20014;-68
2023/01/14 06:34:06;;;;;;;35.15;6.55;;;5.90;99.90;;;;;;7373754;19;20022;-62
2023/01/14 06:36:34;;;;;;;35.92;7.13;;;5.90;99.90;;;;;;7368871;19;20110;-62
2023/01/14 06:39:02;;;;;;;29.52;6.68;;;5.90;99.90;;;;;;7372638;19;20030;-62
2023/01/14 06:41:29;;;;;;;31.50;6.38;;;5.90;99.90;;;;;;7369954;19;20023;-61
2023/01/14 06:43:56;;;;;;;33.25;6.55;;;5.90;99.90;;;;;;7371943;19;20022;-61
2023/01/14 06:46:22;;;;;;;25.58;6.53;;;5.90;99.90;;;;;;7371167;19;20445;-61
2023/01/14 06:48:48;;;;;;;26.77;6.20;;;5.90;99.90;;;;;;7370693;19;20014;-62
2023/01/14 06:51:17;;;;;;;28.70;6.47;;;5.90;99.90;;;;;;7369953;19;20014;-61
2023/01/14 06:53:44;;;;;;;23.50;6.13;;;6.00;99.90;;;;;;7371972;19;20362;-61
2023/01/14 06:56:15;;;;;;;27.98;6.88;;;6.00;99.90;;;;;;7372512;19;20017;-62
2023/01/14 06:58:50;;;;;;;36.40;7.05;;;6.10;99.90;;;;;;7370618;19;20010;-62
2023/01/14 07:01:17;;;;;;;28.25;6.72;;;6.10;99.90;;;;;;7372924;19;20474;-61
2023/01/14 07:03:43;;;;;;;28.33;6.78;;;6.10;99.90;;;;;;7372363;19;20476;-62
2023/01/14 07:06:10;;;;;;;25.85;6.97;;;6.10;99.90;;;;;;7371148;19;20375;-61
2023/01/14 07:08:36;;;;;;;24.63;6.28;;;6.10;99.90;;;;;;7370477;19;20579;-61
2023/01/14 07:11:04;;;;;;;23.77;6.38;;;6.10;99.90;;;;;;7362598;19;20022;-61
2023/01/14 07:13:30;;;;;;;30.75;5.90;;;6.10;99.90;;;;;;7365641;19;20015;-70
2023/01/14 07:15:57;;;;;;;25.67;5.95;;;6.10;99.90;;;;;;7366717;19;20058;-69
2023/01/14 07:18:25;;;;;;;35.60;6.95;;;6.10;99.90;;;;;;7366189;19;20021;-68
2023/01/14 07:20:55;;;;;;;31.15;6.88;;;6.10;99.90;;;;;;7365196;19;20564;-69
2023/01/14 07:23:23;;;;;;;31.55;6.82;;;6.20;99.90;;;;;;7368303;19;20022;-61
2023/01/14 07:25:49;;;;;;;30.40;6.40;;;6.20;99.90;;;;;;7369831;19;20018;-62
2023/01/14 07:28:17;;;;;;;36.22;7.47;;;6.20;99.90;;;;;;7367864;19;20022;-61
2023/01/14 07:30:43;;;;;;;22.17;6.05;;;6.20;99.90;;;;;;7364963;19;20374;-62
2023/01/14 07:33:09;;;;;;;35.55;7.60;;;6.20;99.90;;;;;;7365880;19;20082;-61
2023/01/14 07:35:37;;;;;;;33.55;6.55;;;6.30;99.90;;;;;;7366082;19;20029;-61
2023/01/14 07:38:03;;;;;;;26.40;6.80;;;6.30;99.90;;;;;;7368980;19;20019;-69
2023/01/14 07:40:29;;;;;;;31.27;6.72;;;6.30;99.90;;;;;;7366489;19;20461;-69
2023/01/14 07:43:00;;;;;;;33.50;6.60;;;6.30;99.90;;;;;;7364022;19;20542;-69
2023/01/14 07:45:28;;;;;;;30.23;6.47;;;6.30;99.90;;;;;;7365814;19;20018;-69
2023/01/14 07:47:55;;;;;;;29.48;6.43;;;6.30;99.90;;;;;;7361436;19;20101;-69
2023/01/14 07:50:22;;;;;;;29.23;5.80;;;6.40;99.90;;;;;;7364446;19;20786;-69
2023/01/14 07:52:53;;;;;;;29.85;7.05;;;6.40;99.90;;;;;;7364636;19;20030;-61
2023/01/14 07:55:20;;;;;;;32.40;8.40;;;6.30;99.90;;;;;;7365784;19;20019;-68
2023/01/14 07:57:47;;;;;;;30.55;6.18;;;6.40;99.90;;;;;;7363422;19;20489;-69
2023/01/14 08:00:14;;;;;;;26.80;6.70;;;6.40;99.90;;;;;;7367278;19;20489;-69
2023/01/14 08:02:41;;;;;;;30.77;6.47;;;6.40;99.90;;;;;;7360757;19;20485;-69
2023/01/14 08:05:08;;;;;;;27.50;6.32;;;6.40;99.90;;;;;;7361655;19;20567;-69
2023/01/14 08:07:34;;;;;;;25.42;5.78;;;6.50;99.90;;;;;;7362156;19;20042;-69
2023/01/14 08:10:00;;;;;;;34.28;6.45;;;6.40;99.90;;;;;;7365381;19;20024;-69
2023/01/14 08:12:28;;;;;;;31.45;6.00;;;6.50;99.90;;;;;;7359718;19;20041;-69
2023/01/14 08:14:54;;;;;;;28.40;6.38;;;6.50;99.90;;;;;;7365536;19;20045;-68
2023/01/14 08:17:21;;;;;;;21.15;5.93;;;6.50;99.90;;;;;;7362658;19;20511;-68
2023/01/14 08:19:47;;;;;;;30.92;6.40;;;6.40;99.90;;;;;;7361388;19;20041;-67
2023/01/14 08:22:14;;;;;;;23.17;4.93;;;6.40;99.90;;;;;;7362595;19;20030;-61
2023/01/14 08:24:41;;;;;;;23.77;4.50;;;6.40;99.90;;;;;;7365493;19;20010;-60
2023/01/14 08:27:10;;;;;;;26.83;7.28;;;6.40;99.90;;;;;;7369224;19;20026;-60
2023/01/14 08:29:36;;;;;;;26.00;5.65;;;6.30;99.90;;;;;;7369277;19;20478;-60
2023/01/14 08:32:03;;;;;;;26.48;5.78;;;6.30;99.90;;;;;;7371866;19;20022;-60
2023/01/14 08:34:31;;;;;;;27.30;6.05;;;6.30;99.90;;;;;;7375596;19;20025;-60
2023/01/14 08:36:57;;;;;;;24.02;4.82;;;6.30;99.90;;;;;;7373084;19;20025;-60
2023/01/14 08:39:23;;;;;;;24.70;5.43;;;6.30;99.90;;;;;;7376791;19;20030;-60
2023/01/14 08:41:50;;;;;;;24.38;4.72;;;6.30;99.90;;;;;;7371154;19;20778;-60
2023/01/14 08:44:17;;;;;;;30.05;5.35;;;6.30;99.90;;;;;;7374057;19;20371;-60
2023/01/14 08:46:43;;;;;;;23.50;5.45;;;6.30;99.90;;;;;;7373569;19;20018;-61
2023/01/14 08:49:11;;;;;;;22.00;4.55;;;6.30;99.90;;;;;;7373476;19;20505;-61
2023/01/14 08:51:37;;;;;;;23.88;5.60;;;6.30;99.90;;;;;;7368538;19;20029;-61
2023/01/14 08:54:04;;;;;;;21.13;4.97;;;6.30;99.90;;;;;;7374127;19;20359;-61
2023/01/14 08:56:39;;;;;;;21.33;5.32;;;6.30;99.90;;;;;;7372633;19;20022;-61
2023/01/14 08:59:05;;;;;;;30.42;5.30;;;6.30;99.90;;;;;;7374122;19;20019;-60
2023/01/14 09:01:32;;;;;;;22.00;5.05;;;6.30;99.90;;;;;;7373568;19;20350;-60
2023/01/14 09:04:00;;;;;;;28.30;5.40;;;6.30;99.90;;;;;;7370233;19;20036;-62
2023/01/14 09:06:26;;;;;;;28.88;6.40;;;6.30;99.90;;;;;;7372036;19;20015;-61
2023/01/14 09:17:18;;;;;;;24.77;5.82;;;6.30;99.90;;;;;;7372916;19;20117;-62
2023/01/14 09:19:51;;;;;;;27.00;5.35;;;6.30;99.90;;;;;;7370979;19;20370;-61
2023/01/14 09:22:28;;;;;;;22.10;5.20;;;6.30;99.90;;;;;;7373240;19;20018;-62
2023/01/14 09:25:00;;;;;;;19.60;4.65;;;6.40;99.90;;;;;;7372346;19;20140;-62
2023/01/14 09:27:29;;;;;;;21.70;5.30;;;6.40;99.90;;;;;;7370483;19;20398;-62
2023/01/14 09:29:55;;;;;;;30.83;6.05;;;6.40;99.90;;;;;;7372669;19;20022;-62
2023/01/14 09:32:21;;;;;;;22.08;5.05;;;6.40;99.90;;;;;;7369986;19;20022;-61
2023/01/14 09:34:50;;;;;;;24.20;4.97;;;6.40;99.90;;;;;;7368871;19;20014;-61
2023/01/14 09:37:19;;;;;;;27.10;5.82;;;6.40;99.90;;;;;;7373421;19;20028;-62
2023/01/14 09:39:46;;;;;;;25.77;5.72;;;6.40;99.90;;;;;;7375085;19;20026;-63
2023/01/14 09:42:28;;;;;;;25.88;4.95;;;6.40;99.90;;;;;;7369256;19;20019;-63
2023/01/14 09:45:09;;;;;;;24.75;4.45;;;6.50;99.90;;;;;;7373084;19;20023;-63
2023/01/14 09:47:36;;;;;;;20.63;5.00;;;6.50;99.90;;;;;;7370485;19;20024;-62
2023/01/14 09:50:06;;;;;;;18.67;5.07;;;6.50;99.90;;;;;;7373148;19;20071;-62
2023/01/14 09:52:51;;;;;;;16.90;4.75;;;6.50;99.90;;;;;;7369990;19;20680;-62
2023/01/14 09:55:24;;;;;;;18.60;4.95;;;6.60;99.90;;;;;;7371014;19;20592;-63
2023/01/14 09:58:18;;;;;;;23.20;4.85;;;6.60;99.90;;;;;;7373240;19;20169;-63
2023/01/14 10:00:56;;;;;;;19.88;4.32;;;6.60;99.90;;;;;;7371615;19;20030;-63
2023/01/14 10:03:45;;;;;;;17.52;4.00;;;6.60;99.90;;;;;;7370126;19;20089;-63
2023/01/14 10:06:16;;;;;;;18.80;4.53;;;6.60;99.90;;;;;;7371370;19;20025;-63
2023/01/14 10:08:46;;;;;;;14.20;4.05;;;6.60;99.90;;;;;;7365584;19;20023;-63
2023/01/14 10:11:14;;;;;;;14.27;4.15;;;6.70;99.90;;;;;;7369376;19;21486;-63
2023/01/14 10:14:06;;;;;;;15.13;4.22;;;6.70;99.90;;;;;;7364778;19;20504;-63
2023/01/14 10:16:46;;;;;;;17.05;4.85;;;6.70;99.90;;;;;;7366110;19;20043;-63
2023/01/14 10:19:12;;;;;;;14.20;3.92;;;6.70;99.90;;;;;;7365485;19;20019;-64
2023/01/14 10:21:53;;;;;;;11.00;3.42;;;6.70;99.90;;;;;;7368979;19;20022;-63
2023/01/14 10:24:20;;;;;;;12.55;4.07;;;6.80;99.90;;;;;;7368984;19;20011;-63
2023/01/14 10:26:48;;;;;;;16.02;4.07;;;6.80;99.90;;;;;;7365843;19;20051;-64
2023/01/14 10:29:24;;;;;;;12.85;4.35;;;6.80;99.90;;;;;;7369242;19;20362;-63
2023/01/14 10:32:14;;;;;;;12.73;4.57;;;6.90;99.90;;;;;;7367862;19;20049;-63
2023/01/14 10:34:44;;;;;;;11.50;4.07;;;6.90;99.90;;;;;;7367303;19;20030;-64
2023/01/14 10:37:11;;;;;;;10.98;4.38;;;6.90;99.90;;;;;;7390940;19;20010;-71
2023/01/14 10:39:48;;;;;;;14.65;4.78;;;6.90;99.90;;;;;;7394110;19;20025;-70
2023/01/14 10:42:17;;;;;;;15.10;4.50;;;6.90;99.90;;;;;;7371909;19;20594;-63
2023/01/14 10:44:43;;;;;;;15.55;5.47;;;6.90;99.90;;;;;;7365572;19;20026;-63
2023/01/14 10:47:15;;;;;;;14.85;4.40;;;6.90;99.90;;;;;;7364761;19;20723;-63
2023/01/14 10:50:02;;;;;;;15.20;5.35;;;7.00;99.90;;;;;;7366327;19;20394;-63
2023/01/14 10:52:31;;;;;;;11.87;4.67;;;7.00;99.90;;;;;;7367709;19;20025;-63
2023/01/14 10:54:57;;;;;;;11.77;5.05;;;7.00;99.90;;;;;;7364120;19;20887;-64
2023/01/14 10:57:25;;;;;;;11.07;4.22;;;7.10;99.90;;;;;;7368701;19;20018;-64
2023/01/14 10:59:54;;;;;;;10.30;4.55;;;7.10;99.90;;;;;;7363991;19;20042;-64
2023/01/14 11:02:33;;;;;;;10.05;4.03;;;7.10;99.90;;;;;;7368333;19;20015;-64
2023/01/14 11:05:21;;;;;;;10.48;4.28;;;7.20;99.90;;;;;;7365026;19;20022;-64
2023/01/14 11:07:50;;;;;;;11.50;5.15;;;7.20;99.90;;;;;;7365556;19;20541;-63
2023/01/14 11:10:21;;;;;;;8.73;4.18;;;7.20;99.90;;;;;;7369058;19;20373;-64
2023/01/14 11:12:48;;;;;;;10.27;4.82;;;7.30;99.90;;;;;;7366905;19;20054;-64
2023/01/14 11:15:30;;;;;;;13.98;4.18;;;7.30;99.90;;;;;;7368289;19;20414;-66
2023/01/14 11:18:20;;;;;;;12.57;4.25;;;7.30;99.90;;;;;;7363734;19;20051;-64
2023/01/14 11:21:00;;;;;;;11.65;4.85;;;7.30;99.90;;;;;;7363774;19;20145;-64
2023/01/14 11:23:39;;;;;;;9.35;4.28;;;7.30;99.90;;;;;;7366147;19;20427;-64
2023/01/14 11:26:40;;;;;;;7.88;3.42;;;7.40;99.90;;;;;;7366652;19;20117;-64
2023/01/14 11:29:24;;;;;;;10.43;3.80;;;7.40;99.90;;;;;;7365517;19;20518;-63
2023/01/14 11:31:54;;;;;;;11.93;4.47;;;7.40;99.90;;;;;;7367771;19;20427;-63
2023/01/14 11:34:27;;;;;;;11.00;3.42;;;7.40;99.90;;;;;;7365000;19;20523;-63
2023/01/14 11:37:16;;;;;;;10.73;3.78;;;7.40;99.90;;;;;;7362534;19;20052;-63
2023/01/14 11:40:00;;;;;;;9.43;2.97;;;7.40;99.90;;;;;;7367827;19;20476;-63
2023/01/14 11:42:37;;;;;;;10.27;3.25;;;7.40;99.90;;;;;;7365340;19;20480;-63
2023/01/14 11:45:12;;;;;;;11.57;3.78;;;7.40;99.90;;;;;;7362920;19;20014;-63
2023/01/14 11:47:54;;;;;;;6.70;2.80;;;7.50;99.90;;;;;;7340716;19;20014;-64
2023/01/14 11:50:20;;;;;;;7.90;3.45;;;7.50;99.90;;;;;;7362421;19;20029;-63
2023/01/14 11:53:15;;;;;;;7.15;2.80;;;7.50;99.90;;;;;;7357819;19;20018;-63
2023/01/14 11:55:44;;;;;;;7.93;3.42;;;7.50;99.90;;;;;;7359436;19;20387;-63
2023/01/14 11:58:28;;;;;;;10.18;3.10;;;7.50;99.90;;;;;;7359692;19;20029;-63
2023/01/14 12:01:00;;;;;;;5.82;2.50;;;7.60;99.90;;;;;;7362386;19;20018;-63
2023/01/14 12:03:37;;;;;;;8.65;3.38;;;7.60;99.90;;;;;;7363335;19;20382;-63
2023/01/14 12:06:17;;;;;;;6.50;2.85;;;7.60;99.90;;;;;;7362467;19;20034;-63
2023/01/14 12:08:49;;;;;;;9.18;3.20;;;7.60;99.90;;;;;;7360900;19;20021;-63
2023/01/14 12:11:41;;;;;;;7.07;3.20;;;7.60;99.90;;;;;;7364008;19;20022;-63
2023/01/14 12:17:29;;;;;;;9.57;3.50;;;7.70;99.90;;;;;;7360847;19;20401;-62
2023/01/14 12:20:21;;;;;;;6.13;3.20;;;7.70;99.90;;;;;;7361303;19;20027;-62
2023/01/14 12:23:00;;;;;;;6.68;3.15;;;7.80;99.90;;;;;;7363028;19;20477;-62
2023/01/14 12:25:42;;;;;;;8.43;2.95;;;7.80;99.90;;;;;;7360937;19;20101;-62
2023/01/14 12:28:25;;;;;;;6.93;3.38;;;7.80;99.90;;;;;;7365116;19;20106;-62
2023/01/14 12:30:56;;;;;;;7.10;3.22;;;7.90;99.90;;;;;;7364288;19;20542;-62
2023/01/14 12:33:59;;;;;;;4.07;2.45;;;7.90;99.90;;;;;;7361771;19;20988;-62
2023/01/14 12:37:04;;;;;;;6.35;3.05;;;7.90;99.90;;;;;;7359840;19;20022;-62
2023/01/14 12:46:05;;;;;;;6.57;2.38;;;8.10;99.90;;;;;;7353598;19;20030;-61
2023/01/14 12:48:33;;;;;;;7.82;2.55;;;8.10;99.90;;;;;;7354877;19;20033;-62
2023/01/14 12:51:08;;;;;;;6.32;2.78;;;8.20;99.90;;;;;;7355894;19;20371;-62
2023/01/14 12:53:42;;;;;;;4.90;2.75;;;8.20;99.90;;;;;;7362186;19;20022;-68
2023/01/14 12:56:15;;;;;;;10.55;2.75;;;8.30;99.90;;;;;;7361816;19;20023;-69
2023/01/14 12:58:50;;;;;;;5.38;2.05;;;8.30;99.90;;;;;;7359215;19;20413;-66
2023/01/14 13:01:24;;;;;;;7.45;2.80;;;8.40;99.90;;;;;;7361480;19;20490;-68
2023/01/14 13:04:18;;;;;;;5.55;2.40;;;8.50;99.90;;;;;;7360525;19;20026;-68
2023/01/14 13:06:45;;;;;;;6.95;2.75;;;8.50;99.90;;;;;;7357054;19;20042;-62
2023/01/14 13:09:38;;;;;;;5.00;2.13;;;8.50;99.90;;;;;;7362671;19;20023;-62
2023/01/14 13:12:11;;;;;;;5.15;1.70;;;8.60;99.90;;;;;;7369185;19;20074;-62
2023/01/14 13:14:39;;;;;;;4.82;1.98;;;8.70;99.90;;;;;;7369949;19;20094;-62
2023/01/14 13:17:07;;;;;;;7.10;2.20;;;8.70;99.90;;;;;;7369061;19;20022;-62
2023/01/14 13:19:52;;;;;;;4.50;2.10;;;8.70;99.90;;;;;;7366669;19;20029;-61
2023/01/14 13:22:54;;;;;;;5.13;2.00;;;8.80;99.90;;;;;;7372584;19;20014;-62
2023/01/14 13:25:36;;;;;;;3.70;1.90;;;8.90;99.90;;;;;;7364324;19;20514;-62
2023/01/14 13:28:12;;;;;;;3.72;1.90;;;8.90;99.90;;;;;;7364431;19;20035;-62
2023/01/14 13:30:50;;;;;;;6.88;1.95;;;8.90;99.90;;;;;;7368987;19;20023;-59
2023/01/14 13:33:17;;;;;;;3.55;2.15;;;9.00;99.90;;;;;;7369822;19;20396;-63
2023/01/14 13:36:09;;;;;;;10.80;2.75;;;8.90;99.90;;;;;;7365141;19;20025;-62
2023/01/14 13:38:47;;;;;;;4.30;2.05;;;9.00;99.90;;;;;;7370531;19;20499;-62
2023/01/14 13:41:41;;;;;;;4.97;2.20;;;9.00;99.90;;;;;;7372999;19;20605;-62
2023/01/14 13:44:20;;;;;;;5.57;2.53;;;9.10;99.90;;;;;;7370676;19;20135;-62
2023/01/14 13:47:18;;;;;;;3.47;2.03;;;9.20;99.90;;;;;;7367807;19;20018;-62
2023/01/14 13:50:03;;;;;;;3.53;2.10;;;9.20;99.90;;;;;;7368952;19;20639;-62
2023/01/14 13:52:33;;;;;;;5.82;2.30;;;9.10;99.90;;;;;;7370853;19;20024;-62